createdAt,value
2022-12-07T00:01:45.436Z,33.42
2022-12-07T00:04:17.512Z,36.72
2022-12-07T00:06:48.017Z,29.48
2022-12-07T00:09:18.199Z,30.67
2022-12-07T00:11:47.146Z,29.27
2022-12-07T00:14:19.611Z,26.60
2022-12-07T00:16:50.416Z,30.48
2022-12-07T00:19:22.011Z,21.65
2022-12-07T00:21:50.429Z,23.73
2022-12-07T00:24:18.939Z,23.60
2022-12-07T00:26:46.949Z,20.40
2022-12-07T00:29:18.065Z,20.33
2022-12-07T00:31:46.651Z,21.58
2022-12-07T00:34:17.590Z,20.92
2022-12-07T00:36:47.037Z,30.17
2022-12-07T00:39:15.249Z,28.25
2022-12-07T00:41:43.614Z,22.25
2022-12-07T00:44:12.104Z,23.35
2022-12-07T00:46:42.251Z,16.63
2022-12-07T00:49:10.574Z,18.33
2022-12-07T00:51:39.255Z,17.75
2022-12-07T00:54:08.833Z,22.05
2022-12-07T00:56:37.027Z,16.13
2022-12-07T00:59:06.220Z,15.20
2022-12-07T01:01:37.626Z,17.85
2022-12-07T01:04:06.449Z,22.75
2022-12-07T01:06:34.806Z,16.77
2022-12-07T01:09:03.476Z,14.90
2022-12-07T01:11:33.182Z,13.23
2022-12-07T01:14:02.589Z,14.65
2022-12-07T01:16:34.357Z,15.30
2022-12-07T01:19:05.597Z,14.93
2022-12-07T01:21:38.351Z,13.60
2022-12-07T01:24:09.649Z,12.70
2022-12-07T01:26:39.189Z,14.00
2022-12-07T01:29:07.580Z,14.18
2022-12-07T01:31:35.967Z,14.32
2022-12-07T01:34:04.391Z,15.95
2022-12-07T01:36:35.318Z,15.30
2022-12-07T01:39:06.471Z,16.77
2022-12-07T01:41:37.231Z,14.75
2022-12-07T01:44:24.586Z,12.88
2022-12-07T01:46:54.540Z,13.90
2022-12-07T01:49:34.269Z,14.10
2022-12-07T01:52:17.974Z,13.60
2022-12-07T01:54:49.154Z,16.33
2022-12-07T01:57:18.836Z,18.00
2022-12-07T01:59:51.019Z,15.43
2022-12-07T02:02:30.882Z,15.13
2022-12-07T02:05:00.992Z,14.20
2022-12-07T02:07:31.075Z,17.60
2022-12-07T02:09:59.282Z,22.58
2022-12-07T02:12:27.998Z,16.50
2022-12-07T02:14:57.445Z,12.50
2022-12-07T02:17:31.870Z,15.43
2022-12-07T02:20:19.617Z,14.38
2022-12-07T02:23:32.335Z,14.15
2022-12-07T02:26:31.309Z,12.90
2022-12-07T02:29:14.392Z,13.82
2022-12-07T02:31:48.758Z,13.88
2022-12-07T02:34:24.029Z,12.23
2022-12-07T02:36:56.214Z,13.70
2022-12-07T02:39:32.864Z,14.77
2022-12-07T02:42:07.772Z,13.55
2022-12-07T02:44:39.434Z,13.40
2022-12-07T02:47:12.345Z,13.85
2022-12-07T02:49:41.706Z,14.32
2022-12-07T02:52:11.728Z,14.43
2022-12-07T02:54:39.835Z,14.10
2022-12-07T02:57:18.401Z,16.38
2022-12-07T03:00:03.988Z,13.25
2022-12-07T03:02:40.682Z,12.38
2022-12-07T03:05:22.576Z,14.73
2022-12-07T03:08:00.544Z,12.82
2022-12-07T03:10:34.968Z,12.23
2022-12-07T03:13:09.133Z,12.98
2022-12-07T03:15:44.199Z,13.98
2022-12-07T03:18:17.008Z,14.27
2022-12-07T03:20:47.941Z,13.75
2022-12-07T03:23:19.481Z,13.20
2022-12-07T03:25:57.115Z,15.05
2022-12-07T03:28:35.228Z,14.68
2022-12-07T03:31:13.156Z,12.82
2022-12-07T03:33:46.409Z,15.77
2022-12-07T03:38:51.192Z,14.57
2022-12-07T03:41:23.215Z,12.43
2022-12-07T03:43:52.004Z,9.03
2022-12-07T03:46:28.074Z,11.65
2022-12-07T03:49:01.457Z,12.50
2022-12-07T03:51:36.509Z,13.35
2022-12-07T03:54:11.639Z,13.57
2022-12-07T03:56:40.518Z,12.98
2022-12-07T03:59:09.590Z,13.18
2022-12-07T04:01:39.265Z,11.68
2022-12-07T04:04:07.476Z,14.25
2022-12-07T04:06:35.540Z,12.18
2022-12-07T04:09:03.849Z,12.73
2022-12-07T04:11:31.929Z,12.95
2022-12-07T04:14:17.365Z,13.02
2022-12-07T04:16:46.968Z,13.95
2022-12-07T04:19:15.341Z,14.70
2022-12-07T04:21:43.534Z,16.60
2022-12-07T04:24:13.446Z,15.63
2022-12-07T04:26:41.717Z,14.40
2022-12-07T04:29:10.296Z,15.38
2022-12-07T04:31:39.010Z,16.08
2022-12-07T04:34:09.095Z,15.75
2022-12-07T04:36:37.908Z,16.90
2022-12-07T04:39:08.327Z,16.77
2022-12-07T04:41:37.591Z,17.40
2022-12-07T04:44:08.342Z,18.88
2022-12-07T04:46:36.882Z,19.38
2022-12-07T04:49:05.230Z,16.17
2022-12-07T04:51:34.705Z,19.52
2022-12-07T04:54:02.691Z,18.35
2022-12-07T04:56:30.880Z,18.27
2022-12-07T04:58:58.959Z,19.52
2022-12-07T05:01:27.083Z,19.23
2022-12-07T05:03:55.236Z,17.70
2022-12-07T05:06:23.532Z,20.35
2022-12-07T05:08:53.049Z,22.35
2022-12-07T05:11:35.253Z,21.88
2022-12-07T05:14:04.147Z,20.02
2022-12-07T05:16:32.896Z,22.50
2022-12-07T05:19:01.015Z,21.65
2022-12-07T05:21:29.191Z,19.65
2022-12-07T05:23:58.683Z,20.20
2022-12-07T05:26:27.183Z,24.13
2022-12-07T05:28:56.390Z,22.77
2022-12-07T05:31:27.092Z,21.13
2022-12-07T05:33:55.700Z,21.98
2022-12-07T05:36:24.658Z,22.05
2022-12-07T05:38:52.760Z,19.98
2022-12-07T05:41:43.410Z,21.27
2022-12-07T05:44:11.715Z,29.05
2022-12-07T05:46:39.793Z,22.42
2022-12-07T05:49:08.380Z,22.52
2022-12-07T05:51:36.831Z,19.77
2022-12-07T05:54:05.130Z,19.73
2022-12-07T05:56:34.556Z,19.80
2022-12-07T05:59:21.249Z,20.52
2022-12-07T06:01:50.370Z,21.27
2022-12-07T06:04:18.751Z,23.83
2022-12-07T06:06:47.718Z,21.10
2022-12-07T06:09:16.377Z,20.17
2022-12-07T06:12:03.430Z,18.88
2022-12-07T06:14:31.733Z,19.10
2022-12-07T06:17:00.437Z,19.58
2022-12-07T06:19:29.241Z,20.83
2022-12-07T06:21:57.533Z,19.27
2022-12-07T06:24:25.700Z,21.25
2022-12-07T06:26:55.704Z,21.45
2022-12-07T06:29:24.103Z,20.33
2022-12-07T06:31:53.255Z,20.65
2022-12-07T06:34:23.648Z,22.00
2022-12-07T06:36:54.485Z,19.85
2022-12-07T06:39:26.478Z,25.08
2022-12-07T06:41:56.808Z,21.15
2022-12-07T06:44:26.091Z,22.92
2022-12-07T06:47:31.877Z,23.17
2022-12-07T06:49:51.001Z,22.15
2022-12-07T06:52:22.059Z,20.90
2022-12-07T06:54:50.384Z,23.05
2022-12-07T06:57:21.308Z,23.40
2022-12-07T06:59:49.363Z,20.45
2022-12-07T07:02:17.624Z,22.50
2022-12-07T07:04:49.631Z,20.75
2022-12-07T07:07:17.793Z,21.77
2022-12-07T07:09:48.449Z,22.80
2022-12-07T07:12:16.516Z,22.25
2022-12-07T07:14:46.230Z,21.85
2022-12-07T07:17:14.452Z,22.42
2022-12-07T07:19:43.252Z,19.23
2022-12-07T07:22:15.521Z,21.77
2022-12-07T07:24:46.347Z,17.87
2022-12-07T07:27:18.563Z,22.30
2022-12-07T07:29:53.338Z,19.42
2022-12-07T07:32:22.651Z,19.13
2022-12-07T07:34:51.421Z,25.38
2022-12-07T07:37:22.095Z,20.27
2022-12-07T07:39:52.601Z,22.42
2022-12-07T07:42:21.970Z,17.33
2022-12-07T07:44:57.645Z,18.92
2022-12-07T07:47:27.866Z,19.70
2022-12-07T07:49:58.618Z,21.00
2022-12-07T07:52:29.124Z,20.30
2022-12-07T07:54:58.969Z,18.92
2022-12-07T07:57:27.203Z,20.45
2022-12-07T07:59:56.640Z,20.52
2022-12-07T08:02:26.603Z,20.88
2022-12-07T08:04:55.188Z,18.42
2022-12-07T08:07:26.058Z,22.35
2022-12-07T08:09:56.480Z,19.85
2022-12-07T08:12:24.859Z,18.10
2022-12-07T08:14:53.198Z,17.33
2022-12-07T08:17:24.144Z,20.00
2022-12-07T08:19:55.948Z,18.65
2022-12-07T08:22:26.245Z,17.50
2022-12-07T08:24:57.125Z,17.42
2022-12-07T08:27:27.922Z,17.42
2022-12-07T08:30:03.434Z,17.48
2022-12-07T08:32:35.723Z,19.33
2022-12-07T08:35:03.909Z,20.10
2022-12-07T08:37:33.095Z,19.60
2022-12-07T08:40:02.940Z,16.90
2022-12-07T08:42:38.881Z,17.05
2022-12-07T08:45:10.008Z,15.68
2022-12-07T08:47:43.829Z,17.67
2022-12-07T08:50:13.449Z,16.58
2022-12-07T08:52:44.473Z,17.25
2022-12-07T08:55:13.989Z,14.13
2022-12-07T08:57:44.722Z,13.93
2022-12-07T09:00:15.254Z,14.05
2022-12-07T09:02:46.881Z,14.95
2022-12-07T09:05:18.751Z,14.90
2022-12-07T09:07:51.349Z,13.95
2022-12-07T09:10:20.515Z,15.23
2022-12-07T09:13:02.661Z,13.40
2022-12-07T09:15:35.057Z,18.27
2022-12-07T09:18:06.388Z,15.55
2022-12-07T09:20:35.134Z,13.20
2022-12-07T09:23:03.899Z,16.75
2022-12-07T09:25:35.489Z,14.82
2022-12-07T09:28:04.873Z,16.83
2022-12-07T09:30:47.144Z,16.13
2022-12-07T09:33:23.293Z,13.68
2022-12-07T09:35:54.676Z,12.52
2022-12-07T09:38:22.952Z,14.45
2022-12-07T09:40:54.822Z,14.73
2022-12-07T09:43:25.658Z,13.63
2022-12-07T09:45:58.794Z,12.95
2022-12-07T09:48:34.714Z,13.05
2022-12-07T09:51:04.364Z,14.93
2022-12-07T09:53:36.579Z,13.18
2022-12-07T09:56:05.398Z,11.40
2022-12-07T09:58:42.033Z,12.65
2022-12-07T10:01:16.812Z,12.65
2022-12-07T10:03:52.190Z,14.48
2022-12-07T10:06:23.939Z,11.45
2022-12-07T10:08:52.320Z,12.02
2022-12-07T10:11:25.603Z,13.18
2022-12-07T10:16:41.569Z,11.30
2022-12-07T10:22:08.464Z,11.50
2022-12-07T10:24:38.351Z,11.57
2022-12-07T10:27:06.776Z,10.02
2022-12-07T10:29:39.090Z,12.77
2022-12-07T10:32:28.116Z,11.48
2022-12-07T10:35:24.147Z,10.52
2022-12-07T10:37:53.456Z,10.90
2022-12-07T10:40:34.636Z,12.55
2022-12-07T10:43:05.396Z,12.32
2022-12-07T10:45:35.955Z,12.40
2022-12-07T10:48:18.783Z,12.95
2022-12-07T10:51:04.367Z,11.02
2022-12-07T10:54:53.880Z,11.25
2022-12-07T10:57:34.553Z,11.57
2022-12-07T11:00:15.488Z,12.80
2022-12-07T11:03:10.628Z,11.30
2022-12-07T11:05:48.896Z,13.77
2022-12-07T11:08:27.288Z,11.63
2022-12-07T11:11:04.837Z,11.55
2022-12-07T11:13:43.104Z,11.43
2022-12-07T11:16:25.443Z,10.07
2022-12-07T11:19:27.781Z,11.35
2022-12-07T11:21:59.767Z,9.20
2022-12-07T11:24:37.472Z,10.18
2022-12-07T11:27:20.873Z,10.50
2022-12-07T11:30:11.598Z,10.40
2022-12-07T11:32:55.548Z,10.27
2022-12-07T11:38:01.232Z,9.63
2022-12-07T11:40:36.974Z,11.07
2022-12-07T11:43:15.758Z,11.15
2022-12-07T11:45:46.501Z,12.02
2022-12-07T11:48:19.686Z,11.55
2022-12-07T11:50:50.832Z,13.02
2022-12-07T11:53:22.621Z,12.18
2022-12-07T11:55:56.637Z,11.18
2022-12-07T11:58:45.735Z,15.93
2022-12-07T12:01:28.173Z,13.98
2022-12-07T12:04:05.008Z,14.77
2022-12-07T12:06:36.016Z,14.02
2022-12-07T12:15:25.811Z,13.80
2022-12-07T12:18:14.364Z,12.35
2022-12-07T12:20:47.358Z,12.45
2022-12-07T12:23:21.255Z,13.10
2022-12-07T12:25:52.748Z,14.15
2022-12-07T12:28:28.672Z,14.18
2022-12-07T12:31:14.794Z,12.07
2022-12-07T12:33:47.505Z,11.15
2022-12-07T12:36:45.674Z,11.68
2022-12-07T12:39:17.166Z,11.63
2022-12-07T12:42:09.988Z,12.13
2022-12-07T12:44:59.321Z,10.85
2022-12-07T12:47:56.088Z,12.30
2022-12-07T12:50:27.513Z,9.40
2022-12-07T12:53:00.516Z,11.35
2022-12-07T12:56:08.359Z,10.60
2022-12-07T12:58:42.040Z,10.23
2022-12-07T13:01:50.460Z,9.30
2022-12-07T13:04:44.134Z,9.13
2022-12-07T13:07:54.872Z,10.40
2022-12-07T13:10:36.439Z,9.60
2022-12-07T13:13:10.443Z,11.10
2022-12-07T13:15:43.625Z,9.50
2022-12-07T13:18:37.804Z,8.85
2022-12-07T13:21:53.528Z,10.13
2022-12-07T13:24:25.651Z,9.60
2022-12-07T13:26:59.165Z,9.30
2022-12-07T13:29:27.738Z,11.07
2022-12-07T13:31:59.824Z,10.52
2022-12-07T13:34:33.712Z,11.13
2022-12-07T13:37:07.495Z,11.48
2022-12-07T13:39:46.257Z,13.05
2022-12-07T13:42:25.094Z,13.40
2022-12-07T13:44:56.423Z,12.43
2022-12-07T13:47:39.106Z,12.65
2022-12-07T13:50:25.936Z,11.48
2022-12-07T13:52:58.090Z,13.50
2022-12-07T13:55:26.458Z,11.50
2022-12-07T13:57:58.439Z,9.55
2022-12-07T14:00:28.265Z,11.10
2022-12-07T14:03:00.329Z,10.52
2022-12-07T14:05:30.537Z,9.90
2022-12-07T14:08:02.036Z,10.27
2022-12-07T14:10:32.988Z,10.38
2022-12-07T14:13:02.533Z,11.35
2022-12-07T14:15:32.698Z,12.80
2022-12-07T14:18:04.594Z,13.10
2022-12-07T14:20:38.115Z,11.52
2022-12-07T14:23:22.685Z,11.05
2022-12-07T14:25:52.591Z,12.93
2022-12-07T14:28:31.746Z,11.45
2022-12-07T14:31:02.660Z,11.15
2022-12-07T14:33:30.894Z,15.23
2022-12-07T14:35:59.458Z,13.23
2022-12-07T14:38:29.073Z,12.95
2022-12-07T14:41:21.441Z,12.13
2022-12-07T14:44:15.139Z,13.98
2022-12-07T14:46:41.531Z,13.82
2022-12-07T14:54:50.272Z,11.52
2022-12-07T14:57:18.981Z,11.82
2022-12-07T14:59:47.178Z,13.07
2022-12-07T15:02:16.010Z,14.50
2022-12-07T15:04:44.710Z,13.63
2022-12-07T15:07:20.268Z,13.50
2022-12-07T15:09:49.906Z,14.68
2022-12-07T15:12:18.052Z,14.38
2022-12-07T15:14:47.660Z,14.63
2022-12-07T15:17:27.751Z,14.85
2022-12-07T15:19:59.661Z,15.15
2022-12-07T15:22:36.534Z,15.85
2022-12-07T15:25:15.796Z,16.92
2022-12-07T15:27:44.363Z,14.38
2022-12-07T15:30:13.036Z,14.82
2022-12-07T15:32:41.063Z,13.85
2022-12-07T15:35:09.888Z,14.40
2022-12-07T15:37:37.906Z,15.30
2022-12-07T15:40:09.186Z,16.95
2022-12-07T15:42:38.018Z,17.35
2022-12-07T15:45:08.745Z,15.75
2022-12-07T15:50:27.019Z,14.57
2022-12-07T15:52:55.058Z,15.40
2022-12-07T15:55:27.421Z,16.10
2022-12-07T15:57:55.588Z,15.80
2022-12-07T16:00:23.875Z,17.33
2022-12-07T16:02:52.104Z,18.02
2022-12-07T16:05:20.747Z,21.42
2022-12-07T16:07:49.868Z,25.10
2022-12-07T16:10:18.323Z,25.80
2022-12-07T16:12:47.830Z,22.05
2022-12-07T16:15:18.927Z,23.33
2022-12-07T16:17:50.980Z,25.05
2022-12-07T16:20:19.210Z,24.95
2022-12-07T16:22:47.245Z,23.58
2022-12-07T16:25:15.480Z,22.90
2022-12-07T16:27:43.449Z,22.92
2022-12-07T16:30:17.125Z,22.92
2022-12-07T16:32:45.681Z,22.20
2022-12-07T16:35:14.978Z,23.67
2022-12-07T16:37:44.487Z,19.75
2022-12-07T16:40:14.007Z,18.83
2022-12-07T16:42:42.087Z,20.70
2022-12-07T16:45:19.260Z,19.75
2022-12-07T16:47:48.880Z,20.50
2022-12-07T16:50:17.164Z,18.13
2022-12-07T16:52:45.322Z,21.08
2022-12-07T16:55:13.464Z,19.02
2022-12-07T16:57:41.656Z,19.15
2022-12-07T17:00:12.720Z,19.30
2022-12-07T17:02:40.761Z,20.70
2022-12-07T17:05:10.536Z,20.88
2022-12-07T17:07:39.815Z,23.67
2022-12-07T17:10:11.462Z,23.13
2022-12-07T17:12:39.905Z,20.75
2022-12-07T17:15:21.704Z,22.27
2022-12-07T17:17:55.932Z,21.73
2022-12-07T17:20:26.056Z,25.40
2022-12-07T17:22:54.478Z,25.02
2022-12-07T17:25:24.673Z,24.23
2022-12-07T17:27:52.812Z,23.27
2022-12-07T17:30:21.293Z,23.15
2022-12-07T17:32:53.573Z,20.73
2022-12-07T17:35:21.613Z,22.37
2022-12-07T17:37:51.271Z,22.27
2022-12-07T17:40:19.632Z,23.55
2022-12-07T17:42:51.357Z,21.73
2022-12-07T17:45:19.453Z,18.63
2022-12-07T17:47:47.597Z,21.60
2022-12-07T17:50:17.060Z,20.40
2022-12-07T17:53:02.577Z,20.80
2022-12-07T17:55:43.813Z,20.35
2022-12-07T17:58:18.677Z,18.48
2022-12-07T18:00:46.797Z,19.55
2022-12-07T18:03:15.046Z,18.30
2022-12-07T18:05:45.244Z,16.00
2022-12-07T18:08:13.451Z,16.45
2022-12-07T18:10:41.991Z,17.15
2022-12-07T18:13:27.696Z,21.63
2022-12-07T18:15:59.208Z,18.02
2022-12-07T18:18:27.317Z,17.63
2022-12-07T18:20:56.623Z,18.63
2022-12-07T18:23:24.665Z,18.30
2022-12-07T18:25:52.957Z,19.23
2022-12-07T18:28:21.376Z,17.52
2022-12-07T18:31:14.487Z,15.85
2022-12-07T18:33:39.507Z,18.65
2022-12-07T18:36:10.664Z,21.77
2022-12-07T18:38:39.465Z,18.35
2022-12-07T18:41:09.339Z,18.05
2022-12-07T18:43:37.633Z,18.88
2022-12-07T18:46:12.484Z,17.15
2022-12-07T18:48:43.173Z,20.95
2022-12-07T18:51:15.362Z,24.08
2022-12-07T18:53:44.120Z,20.45
2022-12-07T18:56:14.758Z,18.58
2022-12-07T18:59:03.668Z,26.80
2022-12-07T19:01:32.395Z,20.60
2022-12-07T19:04:08.446Z,21.05
2022-12-07T19:06:38.115Z,23.75
2022-12-07T19:09:07.366Z,28.80
2022-12-07T19:11:50.469Z,27.90
2022-12-07T19:14:25.201Z,27.95
2022-12-07T19:16:56.769Z,22.67
2022-12-07T19:19:30.180Z,22.83
2022-12-07T19:21:59.991Z,21.50
2022-12-07T19:24:28.472Z,22.08
2022-12-07T19:26:56.741Z,23.40
2022-12-07T19:29:25.137Z,20.65
2022-12-07T19:31:53.642Z,21.52
2022-12-07T19:34:28.517Z,20.35
2022-12-07T19:36:56.811Z,21.65
2022-12-07T19:39:26.673Z,20.90
2022-12-07T19:41:57.438Z,23.83
2022-12-07T19:44:27.395Z,23.38
2022-12-07T19:47:02.742Z,21.38
2022-12-07T19:49:34.248Z,21.67
2022-12-07T19:52:04.315Z,18.20
2022-12-07T19:54:34.650Z,20.50
2022-12-07T19:57:04.390Z,19.00
2022-12-07T19:59:32.775Z,18.58
2022-12-07T20:02:00.959Z,20.10
2022-12-07T20:04:32.827Z,21.33
2022-12-07T20:07:02.131Z,20.85
2022-12-07T20:09:30.133Z,21.15
2022-12-07T20:12:19.490Z,22.27
2022-12-07T20:14:48.134Z,21.42
2022-12-07T20:17:16.518Z,21.75
2022-12-07T20:19:44.799Z,19.70
2022-12-07T20:22:14.510Z,20.35
2022-12-07T20:24:42.522Z,19.55
2022-12-07T20:27:12.224Z,21.42
2022-12-07T20:29:40.163Z,21.02
2022-12-07T20:32:09.228Z,22.50
2022-12-07T20:34:37.436Z,19.52
2022-12-07T20:37:07.536Z,18.08
2022-12-07T20:39:36.436Z,20.15
2022-12-07T20:42:22.015Z,20.75
2022-12-07T20:44:51.401Z,21.92
2022-12-07T20:47:19.470Z,19.00
2022-12-07T20:49:47.500Z,21.20
2022-12-07T20:52:15.590Z,18.08
2022-12-07T20:54:44.938Z,23.20
2022-12-07T20:57:13.064Z,21.60
2022-12-07T20:59:41.927Z,21.05
2022-12-07T21:02:13.163Z,20.90
2022-12-07T21:04:41.285Z,21.45
2022-12-07T21:07:09.498Z,22.48
2022-12-07T21:09:37.762Z,20.17
2022-12-07T21:12:06.420Z,22.10
2022-12-07T21:14:34.466Z,22.98
2022-12-07T21:17:04.039Z,22.90
2022-12-07T21:19:33.410Z,20.60
2022-12-07T21:22:04.224Z,20.80
2022-12-07T21:24:32.303Z,23.48
2022-12-07T21:27:00.273Z,20.88
2022-12-07T21:29:42.656Z,23.80
2022-12-07T21:32:11.950Z,31.45
2022-12-07T21:34:41.522Z,28.73
2022-12-07T21:37:10.594Z,27.67
2022-12-07T21:39:40.411Z,25.73
2022-12-07T21:42:08.747Z,22.10
2022-12-07T21:44:36.887Z,23.40
2022-12-07T21:47:05.331Z,23.42
2022-12-07T21:49:37.900Z,21.27
2022-12-07T21:52:07.515Z,21.90
2022-12-07T21:54:35.620Z,21.52
2022-12-07T21:57:03.765Z,22.92
2022-12-07T21:59:32.426Z,21.50
2022-12-07T22:02:00.550Z,21.95
2022-12-07T22:04:29.195Z,20.60
2022-12-07T22:06:59.176Z,21.42
2022-12-07T22:09:30.331Z,19.27
2022-12-07T22:11:58.934Z,20.75
2022-12-07T22:14:44.623Z,20.88
2022-12-07T22:17:12.672Z,19.33
2022-12-07T22:19:40.669Z,22.30
2022-12-07T22:22:08.628Z,17.00
2022-12-07T22:24:40.380Z,20.83
2022-12-07T22:27:09.280Z,20.58
2022-12-07T22:29:37.409Z,18.58
2022-12-07T22:32:31.822Z,20.92
2022-12-07T22:34:53.987Z,20.35
2022-12-07T22:37:22.057Z,21.10
2022-12-07T22:39:51.359Z,19.85
2022-12-07T22:42:19.639Z,20.73
2022-12-07T22:44:48.314Z,22.80
2022-12-07T22:47:17.081Z,20.15
2022-12-07T22:49:45.757Z,17.95
2022-12-07T22:52:13.763Z,19.95
2022-12-07T22:54:41.834Z,19.40
2022-12-07T22:57:11.126Z,20.73
2022-12-07T22:59:39.366Z,19.73
2022-12-07T23:02:07.363Z,20.50
2022-12-07T23:04:35.472Z,20.63
2022-12-07T23:07:03.601Z,20.40
2022-12-07T23:09:31.932Z,20.30
2022-12-07T23:12:17.631Z,19.50
2022-12-07T23:14:47.039Z,18.52
2022-12-07T23:17:15.067Z,19.85
2022-12-07T23:19:43.288Z,18.65
2022-12-07T23:22:11.369Z,19.25
2022-12-07T23:24:39.438Z,19.73
2022-12-07T23:27:09.748Z,20.33
2022-12-07T23:29:39.482Z,20.08
2022-12-07T23:32:09.127Z,19.65
2022-12-07T23:34:37.324Z,22.05
2022-12-07T23:37:05.770Z,22.15
2022-12-07T23:39:33.896Z,24.45
2022-12-07T23:42:03.098Z,21.45
2022-12-07T23:44:31.120Z,21.05
2022-12-07T23:46:59.491Z,20.08
2022-12-07T23:49:28.941Z,20.98
2022-12-07T23:51:56.901Z,19.48
2022-12-07T23:54:24.978Z,18.33
2022-12-07T23:56:53.056Z,21.75
2022-12-07T23:59:21.062Z,22.33
